Latest Coastal Weather Observations for Laverton

IDV60701

Issued at 8:21 pm EST Monday 21 August 2017 (issued every 10 minutes, with the page automatically refreshed every 10 minutes)

About coastal observations | Map of coastal stations | Coastal observations for VIC | Marine services | Other Formats
Station Details ID: 087031 Name: LAVERTON RAAF Lat: -37.86 Lon: 144.76 Height: 20.1 m
Data from the previous 72 hours. | See also: Recent months at Laverton
Date/Time
EST
Temp
°C
Wind Pressure Rain since
9am
mm
Weather Cloud Vis
km
Sea
Height
m
Swell
Dir  Spd
kts
Gust
kts
hPa Trend Height
m
Period
s
Dir
21/08:00pm 10.4 N 7 9 1015.9 - 0.4 - Partly cloudy 10 - - - -
21/07:30pm 10.5 NNE 6 8 1015.8 - 0.4 - Cloudy 10 - - - -
21/07:00pm 10.5 NNE 6 10 1015.5 - 0.4 - Cloudy 10 - - - -
21/06:30pm 10.8 NNE 6 9 1015.0 - 0.4 - Cloudy 10 - - - -
21/06:00pm 11.1 NNE 7 9 1014.6 - 0.4 - Mostly cloudy 10 - - - -
21/05:30pm 11.4 NNE 9 13 1014.0 - 0.4 - Partly cloudy 10 - - - -
21/05:00pm 11.4 NNE 9 12 1013.9 - 0.4 - - 10 - - - -
21/04:30pm 12.2 NNE 8 12 1013.5 - 0.4 - Partly cloudy 10 - - - -
21/04:00pm 12.4 NNE 9 12 1013.4 - 0.4 - - 10 - - - -
21/03:30pm 12.3 N 6 9 1013.5 - 0.4 - Partly cloudy 10 - - - -
21/03:00pm 12.0 NNE 6 9 1013.6 - 0.4 - Cloudy 10 - - - -
21/02:30pm 11.6 N 7 12 1013.9 - 0.4 - Partly cloudy 10 - - - -
21/02:00pm 11.0 NNE 7 11 1014.3 - 0.4 - Partly cloudy 10 - - - -
21/01:30pm 9.7 NNE 8 12 1014.6 - 0.4 - Partly cloudy 10 - - - -
21/01:00pm 8.8 NNE 8 12 1015.1 - 0.4 - Partly cloudy 10 - - - -
21/12:30pm 8.4 NNE 8 11 1015.5 - 0.2 - Partly cloudy 10 - - - -
21/12:00pm 8.1 NNE 9 13 1015.8 - 0.2 - Cloudy 10 - - - -
21/11:30am 7.9 NNE 7 11 1016.1 - 0.2 - Partly cloudy 10 - - - -
21/11:00am 7.4 NNE 7 10 1016.4 - 0.2 - Cloudy 10 - - - -
21/10:30am 6.9 NNE 9 13 1016.6 - 0.2 - Cloudy 10 - - - -
21/10:00am 6.8 NNE 10 15 1016.8 - 0.2 - Partly cloudy 10 - - - -
21/09:30am 6.8 NNE 9 13 1016.9 - 0.0 - Partly cloudy 10 - - - -
21/09:00am 6.8 NNE 8 12 1017.0 - 1.2 Rain Cloudy 10 - - - -
21/08:30am 6.7 NNE 7 11 1017.1 - 0.8 - Partly cloudy 10 - - - -
21/08:00am 6.8 N 8 11 1017.1 - 0.4 - Partly cloudy 10 - - - -
21/07:30am 6.8 N 9 11 1016.8 - 0.4 - Partly cloudy 10 - - - -
21/07:00am 7.8 NNW 10 20 1016.0 - 0.2 - Partly cloudy 10 - - - -
21/06:30am 8.1 NNE 9 12 1015.9 - 0.2 - Partly cloudy 10 - - - -
21/06:00am 7.5 NNE 8 9 1015.9 - 0.2 - Cloudy 10 - - - -
21/05:30am 7.3 NNE 7 11 1015.8 - 0.2 - Partly cloudy 10 - - - -
21/05:00am 7.1 NNE 7 9 1015.7 - 0.2 - - 10 - - - -
21/04:30am 7.3 NNE 6 9 1015.8 - 0.2 - - 10 - - - -
21/04:00am 7.4 NNE 7 10 1016.1 - 0.2 - - 10 - - - -
21/03:30am 7.3 NNE 7 10 1016.5 - 0.2 - - 10 - - - -
21/03:00am 7.0 NE 5 8 1016.7 - 0.2 - Cloudy 10 - - - -
21/02:30am 7.4 NNE 7 9 1017.3 - 0.2 - Partly cloudy 10 - - - -
21/02:00am 7.3 NNE 5 7 1017.6 - 0.2 - Cloudy 10 - - - -
21/01:30am 7.0 NNE 5 7 1018.0 - 0.2 - Cloudy 10 - - - -
21/01:00am 7.0 NNE 5 7 1018.3 - 0.2 - - 10 - - - -
21/12:30am 7.2 NNE 5 7 1018.5 - 0.2 - - 10 - - - -
21/12:00am 7.3 NNE 6 7 1018.7 - 0.2 - Cloudy 10 - - - -
 
Date/Time
EST
Temp
°C
Wind Pressure Rain since
9am
mm
Weather Cloud Vis
km
Sea
Height
m
Swell
Dir  Spd
kts
Gust
kts
hPa Trend Height
m
Period
s
Dir
20/11:30pm 7.2 NNE 6 7 1018.9 - 0.2 - - 10 - - - -
20/11:00pm 7.0 NNE 4 5 1019.0 - 0.2 - - 10 - - - -
20/10:30pm 6.9 NNE 4 4 1019.1 - 0.2 - - 10 - - - -
20/10:00pm 7.2 ENE 4 5 1019.2 - 0.2 - - 10 - - - -
20/09:30pm 7.2 ENE 4 5 1018.9 - 0.2 - - 10 - - - -
20/09:00pm 7.4 ENE 4 5 1019.4 - 0.2 - Mostly cloudy 10 - - - -
20/08:30pm 7.6 E 5 6 1019.6 - 0.2 - - 10 - - - -
20/08:00pm 7.9 E 4 5 1019.7 - 0.2 - - 10 - - - -
20/07:30pm 8.1 E 4 6 1019.7 - 0.2 - - 10 - - - -
20/07:00pm 8.4 E 4 5 1019.9 - 0.2 - - 10 - - - -
20/06:30pm 8.4 E 3 5 1020.1 - 0.2 - - 10 - - - -
20/06:00pm 8.5 ESE 3 5 1020.2 - 0.2 - Partly cloudy 10 - - - -
20/05:30pm 8.9 ESE 5 7 1020.1 - 0.2 - - 10 - - - -
20/05:00pm 9.9 ESE 7 9 1020.2 - 0.2 - - 10 - - - -
20/04:30pm 10.7 SE 8 11 1020.2 - 0.2 - - 10 - - - -
20/04:00pm 11.5 SE 7 9 1020.5 - 0.2 - - 10 - - - -
20/03:30pm 11.3 ESE 7 10 1020.8 - 0.2 - - 10 - - - -
20/03:00pm 12.1 ESE 7 10 1021.0 - 0.2 - - 10 - - - -
20/02:30pm 11.7 ESE 7 10 1021.6 - 0.2 - - 10 - - - -
20/02:00pm 12.4 ENE 7 9 1022.3 - 0.2 - - 10 - - - -
20/01:30pm 12.5 E 6 9 1023.1 - 0.2 - Partly cloudy 10 - - - -
20/01:00pm 12.4 SSW 4 7 1023.6 - 0.2 - Partly cloudy 10 - - - -
20/12:30pm 11.9 N 3 5 1024.1 - 0.2 - - 10 - - - -
20/12:00pm 11.9 N 2 4 1024.9 - 0.0 - - 10 - - - -
20/11:30am 11.3 SE 2 4 1025.5 - 0.0 - - 10 - - - -
20/11:00am 10.9 SE 3 5 1026.0 - 0.0 - - 10 - - - -
20/10:30am 10.0 NNE 4 5 1026.3 - 0.0 - - 10 - - - -
20/10:00am 9.4 CALM 0 4 1026.8 - 0.0 - - 10 - - - -
20/09:30am 7.9 NNW 3 5 1027.2 - 0.0 - - 10 - - - -
20/09:00am 6.7 NW 4 5 1027.5 - 2.0 - - 10 - - - -
20/08:30am 5.3 NNW 2 5 1027.5 - 2.0 - - 10 - - - -
20/08:00am 3.9 NW 3 4 1027.4 - 2.0 - Partly cloudy 10 - - - -
20/07:30am 3.3 NW 6 8 1027.3 - 2.0 - Cloudy 10 - - - -
20/07:00am 3.1 NNW 6 7 1027.0 - 2.0 - Cloudy 10 - - - -
20/06:30am 2.7 NNW 2 4 1027.2 - 2.0 - Cloudy 10 - - - -
20/06:00am 1.9 NNW 3 5 1027.0 - 2.0 - Mostly cloudy 10 - - - -
20/05:30am 1.4 NNW 6 7 1027.0 - 2.0 - Partly cloudy 10 - - - -
20/05:00am 2.2 NW 6 7 1027.0 - 2.0 - - 10 - - - -
20/04:30am 2.3 NW 5 7 1026.8 - 2.0 - - 10 - - - -
20/04:00am 3.2 NW 1 5 1026.6 - 2.0 - Partly cloudy 10 - - - -
20/03:30am 3.1 WNW 5 6 1026.9 - 2.0 - Partly cloudy 10 - - - -
20/03:00am 2.1 NW 7 7 1026.8 - 2.0 - Cloudy 10 - - - -
20/02:30am 2.1 NW 6 7 1026.9 - 2.0 - Partly cloudy 10 - - - -
20/02:00am 2.3 NNW 4 6 1027.0 - 2.0 - - 10 - - - -
20/01:30am 2.9 NW 6 6 1026.9 - 2.0 - - 10 - - - -
20/01:00am 3.5 NW 4 5 1027.2 - 2.0 - - 10 - - - -
20/12:30am 3.7 WNW 7 8 1027.6 - 2.0 - - 10 - - - -
20/12:00am 4.1 WNW 4 6 1027.9 - 2.0 - - 10 - - - -
 
Date/Time
EST
Temp
°C
Wind Pressure Rain since
9am
mm
Weather Cloud Vis
km
Sea
Height
m
Swell
Dir  Spd
kts
Gust
kts
hPa Trend Height
m
Period
s
Dir
19/11:30pm 4.7 WNW 4 5 1028.0 - 2.0 - Partly cloudy 10 - - - -
19/11:00pm 6.2 WSW 1 4 1027.6 - 2.0 - - 10 - - - -
19/10:30pm 7.8 SW 4 6 1027.8 - 2.0 - Partly cloudy 10 - - - -
19/10:00pm 8.0 WSW 6 10 1027.9 - 2.0 - Partly cloudy 10 - - - -
19/09:30pm 8.0 WSW 6 9 1027.8 - 2.0 - Cloudy 10 - - - -
19/09:00pm 8.3 WSW 4 6 1027.7 - 2.0 - Mostly cloudy 10 - - - -
19/08:30pm 8.6 WSW 4 7 1027.6 - 2.0 - Cloudy 10 - - - -
19/08:00pm 8.6 WSW 4 5 1027.5 - 2.0 - Cloudy 10 - - - -
19/07:30pm 8.2 WSW 4 6 1027.5 - 2.0 - Partly cloudy 10 - - - -
19/07:00pm 8.2 S 3 4 1027.5 - 2.0 - Partly cloudy 10 - - - -
19/06:30pm 8.5 S 5 7 1027.4 - 2.0 - Partly cloudy 10 - - - -
19/06:00pm 9.2 S 6 9 1027.4 - 2.0 - Mostly cloudy 10 - - - -
19/05:30pm 9.4 S 7 10 1027.1 - 2.0 - Partly cloudy 10 - - - -
19/05:00pm 10.4 S 10 14 1026.9 - 2.0 - - 10 - - - -
19/04:30pm 10.9 S 11 15 1026.8 - 2.0 - - 10 - - - -
19/04:00pm 11.0 SSE 9 12 1026.6 - 1.8 - - 10 - - - -
19/03:30pm 11.4 SSE 7 11 1026.5 - 1.8 - - 10 - - - -
19/03:00pm 11.1 S 7 10 1026.6 - 1.8 - Partly cloudy 10 - - - -
19/02:30pm 10.8 SSE 6 9 1026.6 - 1.8 - Partly cloudy 10 - - - -
19/02:00pm 11.5 SSW 10 16 1026.8 - 1.8 - Partly cloudy 10 - - - -
19/01:30pm 10.8 SSW 7 9 1026.7 - 1.8 - Partly cloudy 10 - - - -
19/01:00pm 10.0 SSW 9 11 1026.9 - 1.8 - Partly cloudy 10 - - - -
19/12:30pm 10.8 S 7 10 1026.8 - 1.8 - Partly cloudy 10 - - - -
19/12:00pm 10.1 S 7 11 1026.9 - 1.8 - Partly cloudy 10 - - - -
19/11:30am 9.2 SW 7 10 1027.0 - 1.8 - Partly cloudy 10 - - - -
19/11:00am 7.8 SW 5 8 1027.1 - 1.8 - Partly cloudy 10 - - - -
19/10:53am 7.4 SW 4 7 1027.1 - 1.8 - Partly cloudy 10 - - - -
19/10:30am 6.7 SSW 14 23 1027.4 - 1.0 - Partly cloudy 4 - - - -
19/10:28am 7.1 SW 13 23 1027.4 - 0.8 - Partly cloudy 6 - - - -
19/10:27am 7.5 SW 12 23 1027.3 - 0.6 - Partly cloudy 9 - - - -
19/10:00am 8.4 WSW 9 12 1026.8 - 0.0 - Partly cloudy 10 - - - -
19/09:30am 7.9 WSW 8 11 1026.7 - 0.0 - Partly cloudy 10 - - - -
19/09:00am 6.1 W 7 9 1026.3 - 8.0 Recent precip. Cloudy 10 - - - -
19/08:30am 5.8 SW 7 11 1026.1 - 7.6 - Partly cloudy 10 - - - -
19/08:18am 5.6 W 6 9 1025.7 - 7.4 - Partly cloudy 10 - - - -
19/08:03am 5.4 WSW 6 10 1025.3 - 7.4 - Partly cloudy 7 - - - -
19/08:00am 5.4 WSW 6 10 1025.4 - 7.2 - Partly cloudy 10 - - - -
19/07:30am 4.3 W 5 6 1025.0 - 7.0 - Partly cloudy 10 - - - -
19/07:00am 5.1 WSW 7 10 1024.5 - 7.0 - Partly cloudy 10 - - - -
19/06:30am 5.3 WSW 10 13 1023.8 - 7.0 - Partly cloudy 10 - - - -
19/06:00am 5.2 W 9 13 1023.1 - 7.0 - - 10 - - - -
19/05:30am 5.7 WSW 10 15 1022.9 - 7.0 - Partly cloudy 10 - - - -
19/05:00am 5.4 W 6 8 1022.4 - 7.0 - Partly cloudy 10 - - - -
19/04:30am 5.3 W 9 12 1022.2 - 7.0 - - 10 - - - -
19/04:00am 5.6 WSW 11 14 1021.9 - 7.0 - Partly cloudy 10 - - - -
19/03:30am 5.5 W 8 12 1021.8 - 7.0 - Partly cloudy 10 - - - -
19/03:00am 5.4 W 9 11 1021.5 - 7.0 - Partly cloudy 10 - - - -
19/02:30am 5.4 W 8 12 1021.5 - 7.0 - - 10 - - - -
19/02:00am 5.8 W 9 14 1021.5 - 7.0 - Partly cloudy 10 - - - -
19/01:42am 6.0 W 9 13 1021.4 - 7.0 - Partly cloudy 10 - - - -
19/01:30am 6.2 W 11 15 1021.4 - 7.0 - Partly cloudy 7 - - - -
19/01:28am 6.3 W 11 15 1021.4 - 7.0 - Partly cloudy 7 - - - -
19/01:00am 6.3 W 10 13 1021.1 - 6.6 - Partly cloudy 10 - - - -
19/12:30am 6.5 W 12 17 1021.0 - 6.4 - Partly cloudy 10 - - - -
19/12:17am 6.4 WSW 11 20 1021.3 - 6.2 - Partly cloudy 7 - - - -
19/12:00am 6.3 WSW 8 12 1020.9 - 5.8 Rain Cloudy 10 - - - -
 
Date/Time
EST
Temp
°C
Wind Pressure Rain since
9am
mm
Weather Cloud Vis
km
Sea
Height
m
Swell
Dir  Spd
kts
Gust
kts
hPa Trend Height
m
Period
s
Dir
18/11:30pm 7.1 WSW 8 15 1020.9 - 5.2 - Partly cloudy 10 - - - -
18/11:00pm 7.2 WSW 10 14 1020.4 - 5.2 - Partly cloudy 10 - - - -
18/10:30pm 7.2 WSW 10 15 1020.3 - 5.0 - Partly cloudy 10 - - - -
18/10:00pm 7.2 W 8 11 1019.9 - 5.0 - Partly cloudy 10 - - - -
18/09:30pm 7.4 WSW 11 15 1019.5 - 5.0 - Partly cloudy 10 - - - -
18/09:00pm 7.4 W 9 13 1019.2 - 5.0 - Cloudy 10 - - - -
18/08:30pm 7.5 W 9 13 1018.8 - 5.0 - Partly cloudy 10 - - - -

Other Formats:

Comma delimited format used in spreadsheet applications
http://www.bom.gov.au/fwo/IDV60701/IDV60701.94865.axf

JavaScript Object Notation format (JSON) in row-major order
http://www.bom.gov.au/fwo/IDV60701/IDV60701.94865.json